Time;durP1;ratioP1;P1;durP2;ratioP2;P2;SDS_P1;SDS_P2;PMS_P1;PMS_P2;Temp;Humidity;BMP_temperature;BMP_pressure;BME280_temperature;BME280_humidity;BME280_pressure;Samples;Min_cycle;Max_cycle;Signal;HPM_P1;HPM_P2
2023/06/11 00:00:35;;;;;;;7.85;5.53;;;;;;;19.78;65.67;94089.97;4214249;28;20048;-58
2023/06/11 00:02:39;;;;;;;7.90;6.30;;;;;;;19.78;65.62;94088.13;4213144;28;20051;-60
2023/06/11 00:04:45;;;;;;;6.97;5.75;;;;;;;19.79;65.75;94089.75;4213388;28;20138;-56
2023/06/11 00:06:47;;;;;;;7.10;5.93;;;;;;;19.82;65.61;94104.44;4213648;28;20154;-55
2023/06/11 00:08:53;;;;;;;10.20;6.00;;;;;;;19.83;65.44;94095.41;4212810;28;20052;-55
2023/06/11 00:10:55;;;;;;;8.95;5.88;;;;;;;19.84;65.32;94095.19;4213075;28;20043;-56
2023/06/11 00:12:57;;;;;;;6.78;5.97;;;;;;;19.87;65.31;94090.44;4212918;28;20056;-55
2023/06/11 00:15:03;;;;;;;12.00;6.00;;;;;;;19.88;65.30;94092.06;4210777;28;20044;-55
2023/06/11 00:17:04;;;;;;;8.38;6.10;;;;;;;19.89;65.11;94086.50;4211809;28;20050;-55
2023/06/11 00:19:06;;;;;;;7.20;5.75;;;;;;;19.91;64.95;94087.09;4217721;28;20596;-57
2023/06/11 00:21:09;;;;;;;8.25;5.88;;;;;;;19.94;64.82;94091.13;4217719;28;20159;-59
2023/06/11 00:23:11;;;;;;;7.33;5.63;;;;;;;19.94;64.73;94085.81;4211494;28;20048;-60
2023/06/11 00:25:12;;;;;;;10.55;6.22;;;;;;;19.73;65.18;94095.19;4217604;28;20283;-58
2023/06/11 00:27:14;;;;;;;8.43;6.03;;;;;;;19.64;65.83;94098.16;4209937;28;20489;-57
2023/06/11 00:29:16;;;;;;;8.40;5.63;;;;;;;19.56;66.06;94095.81;4215807;28;20134;-57
2023/06/11 00:31:18;;;;;;;8.52;5.97;;;;;;;19.39;66.48;94102.84;4212634;28;20048;-56
2023/06/11 00:33:20;;;;;;;8.07;6.05;;;;;;;19.14;66.99;94098.50;4217898;28;20044;-59
2023/06/11 00:35:22;;;;;;;8.98;6.35;;;;;;;18.86;68.32;94095.63;4216610;28;20067;-60
2023/06/11 00:37:23;;;;;;;9.68;6.70;;;;;;;18.69;69.17;94101.56;4215653;28;20047;-54
2023/06/11 00:39:25;;;;;;;12.27;7.07;;;;;;;18.56;69.89;94101.69;4212183;28;20054;-54
2023/06/11 00:41:30;;;;;;;9.63;6.88;;;;;;;18.59;69.69;94101.28;4213389;28;20105;-60
2023/06/11 00:43:32;;;;;;;9.13;6.90;;;;;;;18.64;69.53;94096.09;4212406;28;20055;-57
2023/06/11 00:45:35;;;;;;;10.93;6.45;;;;;;;18.67;69.69;94098.31;4212360;28;20056;-58
2023/06/11 00:47:38;;;;;;;7.85;6.60;;;;;;;18.79;69.39;94101.03;4210658;28;20093;-59
2023/06/11 00:49:41;;;;;;;9.30;6.50;;;;;;;18.94;69.00;94095.34;4207580;28;20048;-59
2023/06/11 00:51:45;;;;;;;8.00;6.55;;;;;;;19.06;68.55;94087.38;4212801;28;20044;-57
2023/06/11 00:53:47;;;;;;;7.03;6.00;;;;;;;19.18;68.05;94089.03;4211880;28;20143;-57
2023/06/11 00:55:48;;;;;;;9.55;6.90;;;;;;;19.28;67.55;94095.66;4215567;28;20519;-58
2023/06/11 00:57:53;;;;;;;11.48;6.72;;;;;;;19.35;67.28;94091.84;4215429;28;20101;-57
2023/06/11 00:59:55;;;;;;;9.45;6.40;;;;;;;19.42;66.98;94097.06;4209376;28;20063;-59
2023/06/11 01:02:15;;;;;;;7.40;6.17;;;;;;;19.47;66.89;94094.56;4214991;28;20496;-60
2023/06/11 01:04:17;;;;;;;8.07;6.65;;;;;;;19.49;66.81;94097.78;4208133;28;20277;-59
2023/06/11 01:06:21;;;;;;;8.70;6.70;;;;;;;19.53;66.65;94096.28;4211685;28;20059;-57
2023/06/11 01:08:23;;;;;;;7.30;6.22;;;;;;;19.55;66.60;94096.03;4209738;28;20128;-58
2023/06/11 01:10:26;;;;;;;7.80;6.28;;;;;;;19.60;66.40;94094.34;4245017;27;20035;-59
2023/06/11 01:12:28;;;;;;;9.20;6.78;;;;;;;19.62;66.33;94097.56;4212075;28;20098;-56
2023/06/11 01:14:32;;;;;;;8.80;6.85;;;;;;;19.64;66.36;94100.00;4211743;28;20139;-56
2023/06/11 01:16:47;;;;;;;7.90;6.78;;;;;;;19.60;66.30;94099.66;4212633;28;20052;-57
2023/06/11 01:19:33;;;;;;;11.45;6.65;;;;;;;19.60;66.32;94101.50;4201514;28;20043;-56
2023/06/11 01:21:45;;;;;;;9.10;6.55;;;;;;;19.60;66.24;94096.19;4208582;28;20109;-59
2023/06/11 01:23:58;;;;;;;10.07;6.22;;;;;;;19.60;66.22;94093.53;4190176;28;20498;-58
2023/06/11 01:26:09;;;;;;;8.57;6.10;;;;;;;19.60;66.06;94091.69;4212970;28;20051;-59
2023/06/11 01:28:16;;;;;;;8.05;6.32;;;;;;;19.62;66.05;94094.91;4208989;28;20044;-58
2023/06/11 01:30:20;;;;;;;7.93;6.22;;;;;;;19.64;65.98;94092.84;4213069;28;20051;-58
2023/06/11 01:32:27;;;;;;;9.55;6.47;;;;;;;19.65;66.10;94096.28;4210070;28;20048;-58
2023/06/11 01:34:31;;;;;;;7.32;6.38;;;;;;;19.66;65.82;94095.28;4197859;28;20106;-59
2023/06/11 01:36:36;;;;;;;7.28;5.90;;;;;;;19.62;65.77;94088.78;4207856;28;20546;-59
2023/06/11 01:38:44;;;;;;;6.80;4.97;;;;;;;19.62;65.71;94091.44;4207906;28;20056;-56
2023/06/11 01:40:47;;;;;;;7.18;5.68;;;;;;;19.61;65.84;94089.81;4211389;28;20056;-60
2023/06/11 01:42:49;;;;;;;6.97;5.85;;;;;;;19.59;65.65;94092.69;4211926;28;20055;-58
2023/06/11 01:44:51;;;;;;;6.95;5.53;;;;;;;19.60;65.61;94094.34;4211228;28;20063;-58
2023/06/11 01:46:53;;;;;;;6.63;5.50;;;;;;;19.59;65.57;94091.91;4210786;28;20696;-59
2023/06/11 01:48:56;;;;;;;8.82;6.00;;;;;;;19.57;65.35;94094.78;4209758;28;20082;-59
2023/06/11 01:50:58;;;;;;;6.95;5.50;;;;;;;19.56;65.54;94093.16;4211052;28;20040;-56
2023/06/11 01:53:00;;;;;;;7.47;5.55;;;;;;;19.54;65.40;94095.25;4215223;28;20523;-57
2023/06/11 01:55:02;;;;;;;9.98;5.75;;;;;;;19.55;65.55;94099.53;4215576;28;20048;-57
2023/06/11 01:57:04;;;;;;;7.38;5.57;;;;;;;19.57;65.26;94101.94;4209448;28;20058;-56
2023/06/11 01:59:06;;;;;;;7.43;5.35;;;;;;;19.57;65.34;94100.09;4216822;28;20048;-57
2023/06/11 02:01:08;;;;;;;9.80;5.85;;;;;;;19.56;65.22;94103.00;4213929;28;20075;-56
2023/06/11 02:03:11;;;;;;;10.77;6.40;;;;;;;19.48;65.39;94105.97;4214498;28;20089;-58
2023/06/11 02:05:13;;;;;;;8.40;6.30;;;;;;;19.44;65.90;94105.63;4211522;28;20082;-57
2023/06/11 02:07:14;;;;;;;6.45;5.15;;;;;;;19.46;65.63;94097.44;4210590;28;20513;-57
2023/06/11 02:09:16;;;;;;;6.70;5.15;;;;;;;19.47;65.53;94099.03;4211172;28;20043;-57
2023/06/11 02:11:18;;;;;;;7.13;5.32;;;;;;;19.52;65.50;94099.97;4211105;28;20426;-57
2023/06/11 02:13:19;;;;;;;6.88;5.50;;;;;;;19.53;65.18;94101.59;4211011;28;20490;-59
2023/06/11 02:15:21;;;;;;;7.13;5.75;;;;;;;19.54;65.21;94105.88;4211316;28;20119;-57
2023/06/11 02:17:23;;;;;;;8.07;6.07;;;;;;;19.56;64.91;94103.78;4212284;28;20048;-58
2023/06/11 02:19:25;;;;;;;8.73;5.78;;;;;;;19.48;64.91;94104.13;4212403;28;20048;-57
2023/06/11 02:21:26;;;;;;;7.90;5.35;;;;;;;19.33;65.17;94104.56;4212322;28;20105;-59
2023/06/11 02:23:29;;;;;;;7.35;6.05;;;;;;;19.08;66.16;94098.59;4210430;28;20056;-56
2023/06/11 02:25:30;;;;;;;8.70;6.05;;;;;;;18.85;66.98;94096.69;4210441;28;20134;-60
2023/06/11 02:27:32;;;;;;;8.55;6.50;;;;;;;18.74;67.58;94100.88;4210730;28;20044;-55
2023/06/11 02:29:34;;;;;;;10.93;6.38;;;;;;;18.67;67.79;94100.97;4211832;28;20055;-55
2023/06/11 02:31:36;;;;;;;9.45;6.15;;;;;;;18.58;67.83;94097.81;4201358;28;20467;-58
2023/06/11 02:33:38;;;;;;;7.47;6.22;;;;;;;18.56;68.07;94099.03;4220061;28;20067;-58
2023/06/11 02:35:39;;;;;;;9.63;6.72;;;;;;;18.62;68.24;94095.50;4209801;28;20044;-58
2023/06/11 02:37:41;;;;;;;10.25;6.70;;;;;;;18.71;68.01;94096.81;4211280;28;20775;-56
2023/06/11 02:39:43;;;;;;;6.97;5.90;;;;;;;18.85;67.56;94097.50;4219350;28;20075;-60
2023/06/11 02:41:45;;;;;;;8.65;6.00;;;;;;;18.97;67.12;94097.53;4210214;28;20044;-58
2023/06/11 02:43:46;;;;;;;11.02;6.38;;;;;;;18.95;66.51;94095.13;4210593;28;20048;-56
2023/06/11 02:45:48;;;;;;;9.32;6.13;;;;;;;18.96;66.88;94103.88;4211673;28;20052;-58
2023/06/11 02:47:50;;;;;;;7.22;5.78;;;;;;;18.98;66.69;94094.66;4210325;28;20062;-55
2023/06/11 02:49:52;;;;;;;8.63;6.10;;;;;;;19.02;66.54;94093.16;4209735;28;20130;-55
2023/06/11 02:51:54;;;;;;;10.93;5.85;;;;;;;19.10;66.47;94093.88;4210818;28;20475;-54
2023/06/11 02:53:55;;;;;;;6.63;5.50;;;;;;;19.16;65.93;94088.47;4211612;28;20048;-57
2023/06/11 02:55:57;;;;;;;6.05;5.28;;;;;;;19.21;65.32;94096.56;4210630;28;20048;-58
2023/06/11 02:57:59;;;;;;;6.85;5.57;;;;;;;19.24;65.35;94098.75;4207175;28;20151;-60
2023/06/11 03:00:01;;;;;;;7.45;5.55;;;;;;;19.22;65.36;94102.69;4202106;28;20481;-59
2023/06/11 03:02:02;;;;;;;9.70;6.00;;;;;;;19.03;65.42;94104.59;4209556;28;20071;-59
2023/06/11 03:04:05;;;;;;;7.80;5.57;;;;;;;18.60;67.01;94105.53;4208710;28;20551;-58
2023/06/11 03:06:08;;;;;;;12.15;6.50;;;;;;;18.31;68.34;94096.50;4202959;28;20044;-57
2023/06/11 03:08:09;;;;;;;11.25;6.20;;;;;;;18.33;68.56;94108.50;4208381;28;20171;-58
2023/06/11 03:10:11;;;;;;;9.40;6.63;;;;;;;18.44;68.51;94106.94;4209957;28;20050;-55
2023/06/11 03:12:13;;;;;;;7.90;6.25;;;;;;;18.54;68.33;94106.41;4210204;28;20435;-56
2023/06/11 03:14:14;;;;;;;9.77;6.68;;;;;;;18.59;67.72;94099.41;4209495;28;20533;-54
2023/06/11 03:16:18;;;;;;;9.15;6.45;;;;;;;18.49;67.97;94111.59;4210684;28;20467;-57
2023/06/11 03:18:19;;;;;;;9.68;6.25;;;;;;;18.55;67.98;94111.50;4209860;28;20048;-55
2023/06/11 03:20:21;;;;;;;11.43;6.22;;;;;;;18.66;67.77;94104.63;4209496;28;20044;-57
2023/06/11 03:22:23;;;;;;;13.15;6.85;;;;;;;18.78;67.32;94108.19;4209012;28;20466;-58
2023/06/11 03:24:25;;;;;;;10.18;6.43;;;;;;;18.91;66.96;94114.38;4210152;28;20051;-58
2023/06/11 03:26:27;;;;;;;13.00;6.30;;;;;;;18.99;66.51;94111.38;4210881;28;20072;-58
2023/06/11 03:28:29;;;;;;;9.70;6.88;;;;;;;19.05;66.25;94112.34;4207804;28;20128;-57
2023/06/11 03:30:31;;;;;;;9.75;5.93;;;;;;;19.09;66.16;94118.81;4206257;28;20582;-58
2023/06/11 03:32:32;;;;;;;8.68;6.30;;;;;;;19.14;65.74;94119.75;4207865;28;20078;-58
2023/06/11 03:34:34;;;;;;;8.02;6.40;;;;;;;19.23;65.99;94118.41;4208506;28;20135;-56
2023/06/11 03:36:36;;;;;;;11.93;6.63;;;;;;;19.25;65.30;94128.78;4208537;28;20481;-58
2023/06/11 03:38:38;;;;;;;8.52;6.70;;;;;;;19.16;64.91;94130.13;4206875;28;20047;-58
2023/06/11 03:40:39;;;;;;;7.05;5.97;;;;;;;19.13;65.48;94131.41;4209067;28;20074;-57
2023/06/11 03:42:41;;;;;;;11.50;6.97;;;;;;;19.05;65.17;94141.53;4209016;28;20143;-57
2023/06/11 03:44:43;;;;;;;13.68;7.20;;;;;;;19.00;65.59;94134.25;4209142;28;20609;-57
2023/06/11 03:46:46;;;;;;;14.50;6.90;;;;;;;19.06;65.73;94143.13;4205458;28;20048;-57
2023/06/11 03:48:48;;;;;;;8.43;6.50;;;;;;;19.11;65.68;94146.75;4204440;28;20517;-56
2023/06/11 03:50:49;;;;;;;10.40;7.25;;;;;;;18.62;66.02;94138.75;4208330;28;20044;-57
2023/06/11 03:52:51;;;;;;;8.25;5.45;;;;;;;18.50;66.26;94145.03;4195418;28;20040;-57
2023/06/11 03:54:53;;;;;;;7.57;6.28;;;;;;;18.58;66.49;94140.25;4199252;28;20450;-58
2023/06/11 03:56:54;;;;;;;12.48;6.40;;;;;;;18.63;66.70;94136.94;4198466;28;20040;-60
2023/06/11 03:58:56;;;;;;;11.05;6.55;;;;;;;18.77;66.73;94134.91;4206914;28;20052;-57
2023/06/11 04:00:58;;;;;;;9.55;5.78;;;;;;;18.80;65.89;94140.63;4201507;28;20758;-59
2023/06/11 04:02:59;;;;;;;9.48;5.55;;;;;;;18.70;65.64;94137.66;4202431;28;20540;-58
2023/06/11 04:05:01;;;;;;;7.03;5.88;;;;;;;18.69;65.79;94133.41;4208801;28;20079;-61
2023/06/11 04:07:03;;;;;;;8.80;6.25;;;;;;;18.79;65.71;94143.50;4210248;28;20397;-59
2023/06/11 04:09:06;;;;;;;9.52;6.10;;;;;;;18.81;65.76;94136.13;4213636;28;20105;-57
2023/06/11 04:11:08;;;;;;;9.98;5.45;;;;;;;18.90;65.67;94136.63;4213459;28;20105;-58
2023/06/11 04:13:10;;;;;;;6.43;4.70;;;;;;;19.02;64.85;94129.53;4211842;28;20059;-59
2023/06/11 04:15:12;;;;;;;10.70;5.43;;;;;;;19.16;64.60;94130.13;4212991;28;20059;-58
2023/06/11 04:17:14;;;;;;;8.18;4.60;;;;;;;19.28;64.12;94132.84;4213349;28;20044;-58
2023/06/11 04:19:16;;;;;;;6.30;4.88;;;;;;;19.40;63.71;94131.84;4212161;28;20394;-60
2023/06/11 04:21:18;;;;;;;8.07;5.28;;;;;;;19.51;63.21;94135.56;4211278;28;20049;-59
2023/06/11 04:23:20;;;;;;;7.20;4.90;;;;;;;19.61;62.62;94138.44;4210584;28;20071;-58
2023/06/11 04:25:21;;;;;;;9.48;5.85;;;;;;;19.68;62.20;94133.06;4211838;28;20464;-58
2023/06/11 04:27:23;;;;;;;9.88;4.97;;;;;;;19.74;62.01;94137.47;4211120;28;20048;-58
2023/06/11 04:29:29;;;;;;;7.00;5.28;;;;;;;19.74;61.99;94132.16;4213198;28;20051;-59
2023/06/11 04:31:32;;;;;;;7.20;4.72;;;;;;;19.78;61.86;94133.31;4212608;28;20411;-58
2023/06/11 04:33:36;;;;;;;8.77;5.13;;;;;;;19.78;61.90;94138.63;4212723;28;20401;-60
2023/06/11 04:35:38;;;;;;;12.07;5.38;;;;;;;19.83;61.71;94136.09;4211059;28;20312;-59
2023/06/11 04:37:40;;;;;;;8.00;5.25;;;;;;;19.86;61.75;94134.81;4212156;28;20058;-59
2023/06/11 04:39:42;;;;;;;9.48;5.22;;;;;;;19.84;62.00;94131.59;4213214;28;20060;-56
2023/06/11 04:41:46;;;;;;;9.35;4.90;;;;;;;19.82;62.02;94128.34;4212403;28;20663;-59
2023/06/11 04:43:47;;;;;;;5.88;5.28;;;;;;;19.87;61.61;94133.78;4209629;28;20399;-59
2023/06/11 04:45:55;;;;;;;8.50;4.93;;;;;;;19.93;61.49;94124.06;4205446;28;20052;-58
2023/06/11 04:47:58;;;;;;;11.85;6.10;;;;;;;19.92;61.68;94123.28;4211673;28;20127;-57
2023/06/11 04:50:04;;;;;;;11.68;5.50;;;;;;;19.90;61.90;94130.66;4200921;28;20136;-56
2023/06/11 04:52:06;;;;;;;10.70;6.13;;;;;;;19.89;62.06;94128.25;4200358;28;20044;-56
2023/06/11 04:54:08;;;;;;;9.15;6.15;;;;;;;19.68;62.39;94126.91;4201865;28;20599;-59
2023/06/11 04:56:09;;;;;;;9.02;5.90;;;;;;;19.46;62.92;94124.78;4203858;28;20500;-59
2023/06/11 04:58:11;;;;;;;10.57;6.28;;;;;;;19.35;63.68;94122.94;4210583;28;20082;-59
2023/06/11 05:00:13;;;;;;;8.32;5.93;;;;;;;19.15;64.34;94124.03;4206569;28;20043;-59
2023/06/11 05:02:16;;;;;;;8.98;5.90;;;;;;;19.22;64.58;94130.03;4207726;28;20106;-59
2023/06/11 05:04:18;;;;;;;8.00;6.20;;;;;;;19.36;64.12;94125.38;4211441;28;20385;-60
2023/06/11 05:06:21;;;;;;;7.20;5.55;;;;;;;19.53;63.28;94128.19;4212890;28;20044;-64
2023/06/11 05:08:25;;;;;;;8.85;6.30;;;;;;;19.65;63.28;94128.19;4210431;28;20177;-60
2023/06/11 05:10:26;;;;;;;9.02;5.75;;;;;;;19.76;62.74;94134.56;4212616;28;20176;-60
2023/06/11 05:12:28;;;;;;;8.77;6.13;;;;;;;19.69;62.80;94133.84;4212382;28;20401;-58
2023/06/11 05:14:30;;;;;;;11.80;6.15;;;;;;;19.55;63.37;94126.09;4211821;28;20521;-60
2023/06/11 05:16:31;;;;;;;8.63;6.32;;;;;;;19.54;63.20;94127.13;4212443;28;20135;-59
2023/06/11 05:18:33;;;;;;;9.55;6.78;;;;;;;19.55;63.15;94134.06;4212206;28;20170;-58
2023/06/11 05:20:35;;;;;;;9.52;6.78;;;;;;;19.53;62.92;94133.50;4211758;28;20296;-59
2023/06/11 05:22:37;;;;;;;8.82;6.47;;;;;;;19.53;63.12;94136.16;4210759;28;20052;-60
2023/06/11 05:24:41;;;;;;;12.48;6.65;;;;;;;19.43;63.42;94139.34;4212129;28;20467;-60
2023/06/11 05:26:43;;;;;;;13.90;6.45;;;;;;;19.43;63.50;94134.03;4212972;28;20069;-59
2023/06/11 05:28:45;;;;;;;10.32;6.00;;;;;;;19.40;63.31;94137.16;4211752;28;20629;-59
2023/06/11 05:30:46;;;;;;;7.53;5.60;;;;;;;19.41;63.31;94137.97;4212093;28;20147;-61
2023/06/11 05:32:48;;;;;;;9.57;6.15;;;;;;;19.09;63.67;94142.72;4212304;28;20287;-60
2023/06/11 05:34:50;;;;;;;6.93;5.82;;;;;;;18.77;64.93;94142.88;4211024;28;20052;-60
2023/06/11 05:36:52;;;;;;;10.10;6.07;;;;;;;18.77;65.32;94140.22;4210810;28;20109;-60
2023/06/11 05:38:54;;;;;;;10.52;6.32;;;;;;;18.90;65.05;94147.25;4212131;28;20068;-61
2023/06/11 05:40:56;;;;;;;8.20;5.63;;;;;;;18.94;64.57;94141.25;4212311;28;20046;-60
2023/06/11 05:42:58;;;;;;;12.25;5.55;;;;;;;19.02;63.95;94146.25;4212222;28;20060;-60
2023/06/11 05:45:00;;;;;;;8.65;5.40;;;;;;;19.07;64.39;94148.22;4207348;28;20051;-59
2023/06/11 05:47:02;;;;;;;7.93;5.63;;;;;;;19.28;63.93;94151.44;4200054;28;20044;-62
2023/06/11 05:49:05;;;;;;;10.63;5.57;;;;;;;19.18;63.39;94158.06;4211215;28;20090;-60
2023/06/11 05:51:07;;;;;;;8.57;5.22;;;;;;;19.18;63.58;94151.97;4208944;28;20048;-59
2023/06/11 05:53:09;;;;;;;12.80;5.47;;;;;;;19.36;63.57;94156.41;4209449;28;20067;-58
2023/06/11 05:55:11;;;;;;;7.38;5.15;;;;;;;19.57;63.39;94155.06;4211354;28;20109;-59
2023/06/11 05:57:19;;;;;;;8.88;4.55;;;;;;;19.81;62.07;94155.94;4211820;28;20072;-59
2023/06/11 05:59:21;;;;;;;9.68;4.95;;;;;;;19.88;61.49;94155.88;4202340;28;20040;-59
2023/06/11 06:01:23;;;;;;;14.88;4.72;;;;;;;19.93;61.99;94159.44;4203212;28;20075;-60
2023/06/11 06:03:24;;;;;;;7.18;4.63;;;;;;;20.11;60.46;94163.03;4210350;28;20050;-59
2023/06/11 06:05:27;;;;;;;6.63;4.45;;;;;;;20.24;59.60;94146.84;4209209;28;20585;-59
2023/06/11 06:07:28;;;;;;;6.45;4.40;;;;;;;20.39;58.89;94149.84;4209097;28;20402;-60
2023/06/11 06:09:30;;;;;;;8.40;4.47;;;;;;;20.49;58.49;94149.25;4206203;28;20051;-56
2023/06/11 06:11:32;;;;;;;11.15;4.70;;;;;;;20.64;58.29;94152.25;4203809;28;20040;-58
2023/06/11 06:13:33;;;;;;;6.35;4.47;;;;;;;20.77;57.88;94153.84;4205406;28;20121;-57
2023/06/11 06:15:35;;;;;;;11.38;4.90;;;;;;;20.79;57.42;94151.75;4208935;28;20052;-59
2023/06/11 06:17:37;;;;;;;6.35;4.68;;;;;;;20.31;58.65;94152.88;4201714;28;20135;-60
2023/06/11 06:19:39;;;;;;;7.60;4.20;;;;;;;20.14;59.62;94154.59;4209860;28;20044;-60
2023/06/11 06:21:40;;;;;;;8.98;4.78;;;;;;;20.27;59.76;94153.56;4203798;28;20076;-59
2023/06/11 06:23:42;;;;;;;6.05;4.63;;;;;;;20.50;59.32;94153.53;4210346;28;20052;-61
2023/06/11 06:25:45;;;;;;;8.00;4.65;;;;;;;20.75;58.20;94153.28;4204135;28;20060;-60
2023/06/11 06:27:46;;;;;;;8.18;5.05;;;;;;;20.97;57.66;94149.97;4210891;28;20059;-58
2023/06/11 06:29:48;;;;;;;6.85;4.38;;;;;;;21.14;57.35;94156.16;4210348;28;20043;-61
2023/06/11 06:31:50;;;;;;;7.30;5.28;;;;;;;21.21;57.31;94150.72;4210755;28;20036;-61
2023/06/11 06:33:52;;;;;;;8.18;4.47;;;;;;;21.23;56.91;94146.75;4206417;28;20106;-59
2023/06/11 06:35:54;;;;;;;8.57;4.88;;;;;;;21.24;56.63;94150.22;4204734;28;20050;-60
2023/06/11 06:37:55;;;;;;;10.68;5.40;;;;;;;21.45;56.88;94154.09;4209763;28;20055;-59
2023/06/11 06:39:57;;;;;;;10.05;5.10;;;;;;;21.28;56.96;94152.16;4209542;28;20135;-61
2023/06/11 06:41:59;;;;;;;12.38;5.78;;;;;;;21.13;57.64;94154.53;4210322;28;20084;-59
2023/06/11 06:44:01;;;;;;;9.30;5.65;;;;;;;21.20;57.99;94147.22;4209701;28;20048;-60
2023/06/11 06:46:03;;;;;;;6.60;5.43;;;;;;;21.28;57.58;94146.84;4208745;28;20445;-61
2023/06/11 06:48:05;;;;;;;8.93;5.32;;;;;;;20.84;58.59;94151.88;4204588;28;20050;-61
2023/06/11 06:50:07;;;;;;;9.23;5.05;;;;;;;20.98;58.75;94151.59;4210181;28;20050;-61
2023/06/11 06:52:11;;;;;;;12.88;5.43;;;;;;;20.98;58.78;94148.94;4208942;28;20044;-62
2023/06/11 06:54:14;;;;;;;8.20;5.25;;;;;;;21.19;58.63;94142.94;4202912;28;20048;-60
2023/06/11 06:56:17;;;;;;;;;;;;;;;21.37;57.93;94138.47;4216231;28;20257;-60
2023/06/11 06:58:18;;;;;;;7.82;5.68;;;;;;;21.58;57.95;94142.31;4210254;28;19924;-62
2023/06/11 07:00:20;;;;;;;10.27;5.95;;;;;;;21.71;57.04;94144.66;4209567;28;20062;-59
2023/06/11 07:02:22;;;;;;;9.27;5.97;;;;;;;21.83;57.06;94142.75;4209276;28;20075;-60
2023/06/11 07:04:24;;;;;;;18.05;6.38;;;;;;;21.51;56.74;94146.97;4209125;28;20179;-59
2023/06/11 07:06:25;;;;;;;12.02;5.63;;;;;;;21.67;57.11;94139.00;4210705;28;20055;-58
2023/06/11 07:08:27;;;;;;;15.85;5.78;;;;;;;21.86;57.10;94141.44;4208054;28;20048;-57
2023/06/11 07:10:30;;;;;;;7.57;5.32;;;;;;;22.00;57.18;94139.25;4210973;28;20131;-57
2023/06/11 07:12:32;;;;;;;10.88;5.43;;;;;;;22.09;56.36;94145.78;4210900;28;20044;-57
2023/06/11 07:14:34;;;;;;;17.02;5.93;;;;;;;22.16;56.16;94135.78;4210273;28;20113;-61
2023/06/11 07:16:37;;;;;;;9.40;5.50;;;;;;;21.85;56.62;94137.97;4210683;28;20393;-60
2023/06/11 07:18:38;;;;;;;8.90;5.78;;;;;;;21.93;56.95;94147.41;4207983;28;20105;-58
2023/06/11 07:20:40;;;;;;;10.38;5.20;;;;;;;21.93;56.30;94143.94;4206032;28;20127;-60
2023/06/11 07:22:42;;;;;;;8.32;5.25;;;;;;;21.93;56.93;94142.09;4208530;28;20574;-59
2023/06/11 07:24:47;;;;;;;13.07;7.90;;;;;;;21.94;56.97;94140.22;4210542;28;20143;-59
2023/06/11 07:26:48;;;;;;;10.57;5.95;;;;;;;21.66;56.79;94136.56;4208843;28;20052;-58
2023/06/11 07:28:50;;;;;;;7.53;5.88;;;;;;;21.57;56.77;94136.16;4210154;28;20048;-60
2023/06/11 07:30:52;;;;;;;10.02;6.38;;;;;;;21.52;56.90;94140.63;4208737;28;20055;-58
2023/06/11 07:32:54;;;;;;;10.55;6.25;;;;;;;21.59;56.64;94135.94;4210557;28;20047;-59
2023/06/11 07:34:56;;;;;;;7.68;5.68;;;;;;;21.65;56.77;94133.09;4208426;28;20370;-61
2023/06/11 07:36:57;;;;;;;10.18;5.45;;;;;;;21.55;56.17;94135.59;4207503;28;20129;-60
2023/06/11 07:39:00;;;;;;;8.98;5.68;;;;;;;21.53;56.69;94129.72;4209718;28;20048;-58
2023/06/11 07:41:01;;;;;;;7.50;5.53;;;;;;;21.79;56.85;94130.13;4212239;28;20044;-61
2023/06/11 07:43:03;;;;;;;12.43;6.15;;;;;;;22.19;55.95;94123.78;4213272;28;20063;-61
2023/06/11 07:45:08;;;;;;;8.32;6.65;;;;;;;22.54;55.36;94122.69;4212955;28;20048;-60
2023/06/11 07:47:10;;;;;;;8.45;6.20;;;;;;;22.74;54.85;94120.28;4213717;28;20530;-62
2023/06/11 07:49:11;;;;;;;8.07;5.30;;;;;;;22.85;54.17;94121.22;4203196;28;20127;-60
2023/06/11 07:51:14;;;;;;;10.82;4.95;;;;;;;23.12;53.59;94115.13;4213724;28;20044;-60
2023/06/11 07:53:21;;;;;;;10.45;5.72;;;;;;;23.34;53.42;94115.88;4211739;28;20046;-60
2023/06/11 07:55:23;;;;;;;6.93;5.73;;;;;;;23.46;53.21;94111.19;4213440;28;20047;-58
2023/06/11 07:57:25;;;;;;;10.35;7.15;;;;;;;23.52;52.34;94107.50;4212866;28;20470;-59
2023/06/11 07:59:29;;;;;;;10.48;6.80;;;;;;;23.56;52.66;94110.47;4206565;28;20064;-63
2023/06/11 08:01:31;;;;;;;10.30;5.40;;;;;;;23.61;52.35;94110.50;4212901;28;20114;-60
2023/06/11 08:03:33;;;;;;;8.07;5.53;;;;;;;23.67;52.38;94112.16;4212872;28;20048;-61
2023/06/11 08:05:35;;;;;;;8.80;5.40;;;;;;;23.82;51.77;94118.75;4212843;28;20048;-61
2023/06/11 08:07:38;;;;;;;7.88;5.00;;;;;;;23.90;51.61;94118.28;4212442;28;20359;-60
2023/06/11 08:09:40;;;;;;;7.68;5.40;;;;;;;23.92;50.79;94118.81;4213121;28;20093;-59
2023/06/11 08:11:42;;;;;;;12.57;5.80;;;;;;;23.59;48.67;94112.63;4212749;28;20051;-62
2023/06/11 08:13:44;;;;;;;8.77;5.43;;;;;;;22.64;51.02;94110.28;4212333;28;20078;-60
2023/06/11 08:15:45;;;;;;;9.10;5.40;;;;;;;22.78;51.89;94116.06;4212986;28;20059;-62
2023/06/11 08:17:47;;;;;;;8.48;5.63;;;;;;;22.91;51.77;94112.22;4211904;28;20113;-58
2023/06/11 08:19:49;;;;;;;11.02;5.50;;;;;;;23.03;51.97;94112.88;4211933;28;20580;-61
2023/06/11 08:21:51;;;;;;;7.60;5.32;;;;;;;23.17;51.54;94109.84;4212633;28;20059;-60
2023/06/11 08:23:53;;;;;;;13.15;5.70;;;;;;;23.29;50.61;94108.59;4212759;28;20054;-60
2023/06/11 08:25:58;;;;;;;9.27;5.47;;;;;;;23.62;49.73;94106.00;4200264;28;20048;-59
2023/06/11 08:28:00;;;;;;;8.90;5.65;;;;;;;23.39;49.40;94102.56;4199992;28;20041;-58
2023/06/11 08:30:03;;;;;;;7.38;5.22;;;;;;;23.41;50.29;94107.66;4207267;28;20044;-60
2023/06/11 08:32:05;;;;;;;9.70;5.40;;;;;;;23.22;49.08;94100.00;4212049;28;20039;-59
2023/06/11 08:34:07;;;;;;;17.02;5.65;;;;;;;23.24;49.39;94102.44;4198351;28;20056;-60
2023/06/11 08:36:08;;;;;;;8.30;5.20;;;;;;;23.29;49.87;94105.94;4198077;28;20052;-61
2023/06/11 08:38:11;;;;;;;9.07;5.60;;;;;;;23.49;49.66;94091.97;4198457;28;20076;-61
2023/06/11 08:40:13;;;;;;;7.38;5.28;;;;;;;23.73;49.26;94105.00;4201422;28;20055;-60
2023/06/11 08:42:15;;;;;;;12.68;8.85;;;;;;;23.97;48.66;94105.47;4211661;28;20052;-60
2023/06/11 08:44:17;;;;;;;10.98;5.53;;;;;;;23.85;48.89;94107.50;4207332;28;20078;-61
2023/06/11 08:46:21;;;;;;;8.15;5.32;;;;;;;23.83;48.27;94105.13;4208677;28;20083;-60
2023/06/11 08:48:24;;;;;;;8.65;5.60;;;;;;;23.95;49.22;94110.28;4207035;28;20532;-61
2023/06/11 08:50:26;;;;;;;8.10;4.93;;;;;;;24.19;48.41;94101.88;4204103;28;20041;-61
2023/06/11 08:52:30;;;;;;;8.85;5.38;;;;;;;24.19;46.58;94104.53;4201856;28;20045;-61
2023/06/11 08:54:32;;;;;;;9.40;5.13;;;;;;;24.24;46.72;94113.44;4211598;28;20054;-62
2023/06/11 08:56:34;;;;;;;12.48;5.53;;;;;;;24.33;46.54;94108.38;4210559;28;20046;-60
2023/06/11 08:58:36;;;;;;;11.43;4.97;;;;;;;24.57;46.64;94097.28;4212856;28;20082;-60
2023/06/11 09:00:38;;;;;;;10.80;5.15;;;;;;;24.17;46.74;94096.78;4205626;28;20111;-61
2023/06/11 09:02:39;;;;;;;10.57;5.70;;;;;;;24.35;46.95;94100.91;4212732;28;20040;-60
2023/06/11 09:04:44;;;;;;;9.70;5.50;;;;;;;24.47;47.36;94098.81;4211662;28;20048;-58
2023/06/11 09:06:50;;;;;;;10.27;4.85;;;;;;;24.70;46.96;94102.16;4210955;28;20052;-56
2023/06/11 09:09:05;;;;;;;8.02;5.38;;;;;;;24.92;45.98;94099.28;4212920;28;20122;-60
2023/06/11 09:11:07;;;;;;;7.10;5.53;;;;;;;25.03;45.68;94092.91;4207724;28;20071;-58
2023/06/11 09:13:08;;;;;;;7.85;4.88;;;;;;;25.01;45.21;94081.63;4205720;28;20052;-57
2023/06/11 09:15:12;;;;;;;9.85;5.10;;;;;;;25.10;46.13;94095.31;4208686;28;20048;-60
2023/06/11 09:17:17;;;;;;;6.57;5.05;;;;;;;25.23;46.16;94089.50;4212110;28;20075;-59
2023/06/11 09:19:19;;;;;;;6.53;4.80;;;;;;;25.18;44.81;94077.94;4211041;28;20153;-59
2023/06/11 09:21:24;;;;;;;9.57;5.63;;;;;;;25.21;43.47;94074.72;4212814;28;20105;-60
2023/06/11 09:23:34;;;;;;;6.68;4.82;;;;;;;24.77;44.07;94081.28;4211905;28;20627;-56
2023/06/11 09:25:37;;;;;;;7.88;4.75;;;;;;;24.73;44.34;94080.22;4211366;28;20101;-54
2023/06/11 09:27:39;;;;;;;;;;;;;;;24.92;45.00;94077.88;4211396;28;20048;-57
2023/06/11 09:29:44;;;;;;;7.15;5.20;;;;;;;24.74;44.61;94081.84;4212700;28;20353;-61
2023/06/11 09:31:45;;;;;;;8.05;4.65;;;;;;;24.95;45.22;94074.66;4211752;28;20086;-60
2023/06/11 09:33:47;;;;;;;7.07;5.00;;;;;;;25.08;45.10;94071.47;4210744;28;20059;-61
2023/06/11 09:35:50;;;;;;;7.13;5.28;;;;;;;24.88;43.80;94061.50;4212389;28;20165;-62